Time;durP1;ratioP1;P1;durP2;ratioP2;P2;SDS_P1;SDS_P2;PMS_P1;PMS_P2;Temp;Humidity;BMP_temperature;BMP_pressure;BME280_temperature;BME280_humidity;BME280_pressure;Samples;Min_cycle;Max_cycle;Signal;HPM_P1;HPM_P2
2022/04/15 00:01:22;;;;;;;67.27;27.80;;;;;;;2.13;83.66;99772.77;1760183;80;20931;-68
2022/04/15 00:04:00;;;;;;;66.95;27.67;;;;;;;2.11;83.81;99773.02;1761341;80;21252;-68
2022/04/15 00:06:31;;;;;;;77.35;30.32;;;;;;;2.10;83.85;99767.32;1723043;81;21425;-68
2022/04/15 00:08:59;;;;;;;70.42;27.80;;;;;;;2.08;83.84;99766.76;1754635;80;20932;-70
2022/04/15 00:11:37;;;;;;;80.60;29.48;;;;;;;2.06;83.80;99769.44;1755457;80;20929;-68
2022/04/15 00:14:06;;;;;;;75.25;28.80;;;;;;;2.04;83.85;99768.34;1754487;80;20928;-68
2022/04/15 00:16:36;;;;;;;75.67;29.00;;;;;;;2.02;84.07;99767.77;1726235;81;20912;-67
2022/04/15 00:19:09;;;;;;;74.03;29.25;;;;;;;2.01;84.42;99767.49;1765849;80;21566;-67
2022/04/15 00:21:38;;;;;;;72.55;27.52;;;;;;;2.00;84.67;99769.92;1773838;80;20952;-67
2022/04/15 00:24:06;;;;;;;66.47;27.52;;;;;;;1.97;84.84;99767.72;1763796;80;21022;-68
2022/04/15 00:26:37;;;;;;;72.70;28.70;;;;;;;1.93;85.06;99780.13;1753078;80;20961;-69
2022/04/15 00:29:10;;;;;;;77.20;28.55;;;;;;;1.91;85.08;99773.61;1746731;80;20990;-69
2022/04/15 00:31:39;;;;;;;69.25;28.83;;;;;;;1.88;85.09;99778.71;1763774;80;21484;-69
2022/04/15 00:34:10;;;;;;;71.77;26.40;;;;;;;1.86;84.94;99778.97;1752540;80;20947;-69
2022/04/15 00:36:41;;;;;;;72.97;28.47;;;;;;;1.84;85.11;99773.52;1751123;81;21494;-69
2022/04/15 00:39:16;;;;;;;71.05;28.73;;;;;;;1.81;85.21;99771.31;1755831;80;20912;-69
2022/04/15 00:41:46;;;;;;;80.47;30.30;;;;;;;1.78;85.14;99773.99;1757342;80;21553;-70
2022/04/15 00:44:28;;;;;;;67.08;28.40;;;;;;;1.75;85.17;99769.09;1736308;80;21510;-69
2022/04/15 00:46:58;;;;;;;65.85;27.48;;;;;;;1.75;85.19;99767.73;1755936;80;20984;-69
2022/04/15 00:49:26;;;;;;;74.92;27.55;;;;;;;1.75;85.38;99762.86;1751892;80;21061;-67
2022/04/15 00:51:53;;;;;;;72.92;28.70;;;;;;;1.72;85.48;99760.69;1759983;80;21462;-69
2022/04/15 00:54:22;;;;;;;78.87;29.65;;;;;;;1.71;85.55;99763.11;1761837;80;21106;-69
2022/04/15 00:56:54;;;;;;;71.72;28.67;;;;;;;1.68;85.80;99754.95;1771064;80;20883;-69
2022/04/15 00:59:21;;;;;;;74.27;31.30;;;;;;;1.68;85.98;99757.66;1763975;80;20881;-68
2022/04/15 01:01:55;;;;;;;72.85;29.23;;;;;;;1.67;85.90;99754.67;1757885;80;20944;-69
2022/04/15 01:04:26;;;;;;;76.72;30.45;;;;;;;1.65;85.82;99756.81;1730865;80;20959;-69
2022/04/15 01:09:26;;;;;;;80.47;32.42;;;;;;;1.68;86.04;99752.78;1817154;78;26897;-67
2022/04/15 01:11:54;;;;;;;78.20;31.97;;;;;;;1.63;85.98;99746.24;1725268;80;20998;-67
2022/04/15 01:14:22;;;;;;;83.35;33.18;;;;;;;1.62;86.10;99751.37;1755850;80;22226;-67
2022/04/15 01:16:49;;;;;;;81.70;32.25;;;;;;;1.61;86.12;99751.09;1757662;80;21670;-67
2022/04/15 01:19:15;;;;;;;86.87;34.43;;;;;;;1.61;86.06;99749.73;1767372;80;20931;-67
2022/04/15 01:21:42;;;;;;;81.30;32.30;;;;;;;1.59;86.13;99749.17;1751251;80;20998;-67
2022/04/15 01:24:08;;;;;;;82.45;32.15;;;;;;;1.58;86.36;99744.01;1755370;80;20986;-68
2022/04/15 01:26:39;;;;;;;87.60;33.38;;;;;;;1.56;86.49;99743.44;1757280;80;21761;-68
2022/04/15 01:29:08;;;;;;;72.35;29.60;;;;;;;1.55;86.40;99752.62;1736556;81;20907;-67
2022/04/15 01:31:34;;;;;;;81.05;31.80;;;;;;;1.51;86.45;99754.20;1765489;80;20932;-68
2022/04/15 01:34:01;;;;;;;75.80;30.70;;;;;;;1.49;86.63;99755.80;1748082;81;21459;-67
2022/04/15 01:36:28;;;;;;;83.37;32.10;;;;;;;1.48;86.82;99752.81;1766916;80;20852;-67
2022/04/15 01:38:57;;;;;;;75.05;30.70;;;;;;;1.47;86.78;99753.06;1764856;80;21089;-69
2022/04/15 01:41:24;;;;;;;72.80;30.08;;;;;;;1.46;86.66;99756.84;1748678;81;21035;-68
2022/04/15 01:43:50;;;;;;;75.78;29.57;;;;;;;1.43;86.61;99751.39;1760108;80;21524;-68
2022/04/15 01:46:17;;;;;;;76.70;30.37;;;;;;;1.43;86.75;99745.16;1748827;80;20973;-68
2022/04/15 01:48:45;;;;;;;77.05;30.02;;;;;;;1.42;86.61;99747.05;1751003;80;20982;-70
2022/04/15 01:51:13;;;;;;;70.75;29.72;;;;;;;1.41;86.57;99744.06;1756172;80;21127;-70
2022/04/15 01:53:53;;;;;;;77.00;28.73;;;;;;;1.41;86.63;99748.66;1760302;80;20920;-70
2022/04/15 01:56:18;;;;;;;79.62;28.98;;;;;;;1.41;86.67;99735.13;1756673;80;21124;-71
2022/04/15 01:58:49;;;;;;;73.37;29.90;;;;;;;1.39;86.70;99730.50;1756805;80;21018;-67
2022/04/15 02:01:18;;;;;;;73.62;29.90;;;;;;;1.37;86.77;99739.41;1754019;80;21125;-67
2022/04/15 02:03:54;;;;;;;66.70;29.20;;;;;;;1.36;86.99;99733.17;1754241;80;21252;-67
2022/04/15 02:06:21;;;;;;;68.15;27.00;;;;;;;1.34;87.13;99738.02;1747501;80;20871;-68
2022/04/15 02:08:57;;;;;;;62.73;27.25;;;;;;;1.31;87.21;99727.16;1735400;80;20958;-68
2022/04/15 02:11:27;;;;;;;66.37;26.82;;;;;;;1.28;87.15;99727.66;1740711;81;21530;-68
2022/04/15 02:13:59;;;;;;;71.47;28.05;;;;;;;1.26;87.08;99723.04;1706534;81;20917;-68
2022/04/15 02:16:30;;;;;;;64.58;26.07;;;;;;;1.24;87.11;99728.41;1731873;81;22271;-67
2022/04/15 02:19:02;;;;;;;66.87;27.62;;;;;;;1.20;87.30;99721.33;1688063;81;21041;-68
2022/04/15 02:21:42;;;;;;;66.10;26.62;;;;;;;1.20;87.57;99726.75;1717918;82;20990;-67
2022/04/15 02:24:07;;;;;;;66.55;24.98;;;;;;;1.20;87.68;99723.22;1717098;81;21038;-67
2022/04/15 02:26:40;;;;;;;54.50;24.82;;;;;;;1.19;87.61;99717.00;1697366;82;21116;-67
2022/04/15 02:29:18;;;;;;;60.08;23.62;;;;;;;1.18;87.62;99720.77;1726820;81;21124;-69
2022/04/15 02:31:45;;;;;;;53.28;23.87;;;;;;;1.16;87.93;99713.97;1723644;81;21453;-68
2022/04/15 02:34:18;;;;;;;58.92;23.15;;;;;;;1.15;88.20;99714.53;1723927;81;20985;-68
2022/04/15 02:36:49;;;;;;;53.10;22.58;;;;;;;1.13;88.33;99713.97;1720492;81;20950;-68
2022/04/15 02:39:25;;;;;;;52.33;23.83;;;;;;;1.12;88.30;99716.92;1687925;82;21028;-68
2022/04/15 02:41:55;;;;;;;50.38;21.30;;;;;;;1.09;88.10;99706.07;1717123;81;21189;-68
2022/04/15 02:44:30;;;;;;;56.23;22.60;;;;;;;1.07;87.92;99710.91;1690629;82;21013;-68
2022/04/15 02:47:00;;;;;;;50.52;21.07;;;;;;;1.05;87.95;99706.28;1717777;81;21413;-69
2022/04/15 02:49:32;;;;;;;56.13;22.20;;;;;;;1.03;87.99;99707.06;1696972;81;20903;-67
2022/04/15 02:52:05;;;;;;;57.43;22.67;;;;;;;1.03;88.13;99699.49;1724480;81;21588;-73
2022/04/15 02:54:32;;;;;;;58.90;20.88;;;;;;;1.01;88.43;99709.20;1721839;81;21494;-72
2022/04/15 02:57:04;;;;;;;52.95;19.35;;;;;;;1.00;88.75;99704.86;1716400;82;20938;-69
2022/04/15 02:59:37;;;;;;;55.05;21.37;;;;;;;0.99;88.80;99708.62;1697483;82;20979;-67
2022/04/15 03:02:08;;;;;;;48.15;19.02;;;;;;;0.96;88.75;99704.55;1739475;81;21019;-67
2022/04/15 03:04:36;;;;;;;50.48;19.57;;;;;;;0.94;88.97;99701.27;1752364;81;21059;-67
2022/04/15 03:07:10;;;;;;;49.03;19.98;;;;;;;0.92;88.90;99701.23;1752260;80;21516;-67
2022/04/15 03:09:39;;;;;;;52.70;20.82;;;;;;;0.89;88.98;99701.20;1745810;81;20986;-68
2022/04/15 03:12:10;;;;;;;48.17;19.55;;;;;;;0.88;89.13;99704.15;1731987;81;21874;-68
2022/04/15 03:14:39;;;;;;;41.10;17.73;;;;;;;0.88;89.30;99702.80;1729745;81;20887;-68
2022/04/15 03:17:12;;;;;;;46.13;19.12;;;;;;;0.87;89.40;99697.11;1752159;81;20959;-68
2022/04/15 03:19:40;;;;;;;59.97;23.07;;;;;;;0.88;89.52;99701.44;1750865;81;21117;-68
2022/04/15 03:22:11;;;;;;;54.27;21.42;;;;;;;0.89;89.81;99703.08;1753006;81;21008;-68
2022/04/15 03:24:48;;;;;;;50.30;20.32;;;;;;;0.89;89.78;99698.49;1747219;81;20935;-68
2022/04/15 03:27:18;;;;;;;56.33;22.42;;;;;;;0.91;89.70;99702.30;1749797;81;20995;-67
2022/04/15 03:29:49;;;;;;;56.53;22.58;;;;;;;0.93;89.74;99709.09;1711237;81;21501;-68
2022/04/15 03:32:17;;;;;;;55.30;23.25;;;;;;;0.95;89.83;99700.73;1723810;81;21928;-68
2022/04/15 03:34:59;;;;;;;63.63;23.07;;;;;;;0.97;89.80;99702.13;1740732;81;20921;-67
2022/04/15 03:37:30;;;;;;;62.33;23.15;;;;;;;1.01;89.75;99707.84;1739911;81;21000;-67
2022/04/15 03:40:05;;;;;;;61.15;23.55;;;;;;;1.05;89.69;99702.77;1730585;81;21044;-69
2022/04/15 03:42:52;;;;;;;71.47;25.48;;;;;;;1.08;89.80;99700.38;1711835;81;21580;-67
2022/04/15 03:45:22;;;;;;;83.20;27.82;;;;;;;1.13;90.67;99697.75;1717862;81;21195;-68
2022/04/15 03:47:58;;;;;;;72.32;28.40;;;;;;;1.19;90.68;99692.66;1704525;82;20980;-67
2022/04/15 03:50:26;;;;;;;;;;;;;;;1.26;90.77;99697.88;1738392;81;21589;-68
2022/04/15 03:52:58;;;;;;;83.80;29.75;;;;;;;1.32;90.71;99697.70;1709612;82;20093;-68
2022/04/15 03:55:30;;;;;;;84.45;31.23;;;;;;;1.42;91.20;99698.89;1734749;81;20933;-68
2022/04/15 03:57:59;;;;;;;80.72;29.57;;;;;;;1.52;91.15;99696.31;1718721;81;21242;-68
2022/04/15 04:00:27;;;;;;;88.25;29.15;;;;;;;1.61;91.02;99694.26;1736715;81;21042;-68
2022/04/15 04:03:01;;;;;;;86.72;31.12;;;;;;;1.70;90.88;99701.39;1732021;82;20964;-68
2022/04/15 04:05:38;;;;;;;74.50;27.17;;;;;;;1.79;90.93;99696.31;1749252;82;20858;-69
2022/04/15 04:08:08;;;;;;;73.60;25.30;;;;;;;1.89;90.78;99689.66;1724845;81;21079;-68
2022/04/15 04:10:43;;;;;;;71.17;26.10;;;;;;;1.96;90.43;99682.97;1692033;82;25138;-67
2022/04/15 04:13:17;;;;;;;56.90;22.98;;;;;;;2.09;90.27;99684.98;1713314;82;21045;-67
2022/04/15 04:15:47;;;;;;;58.25;21.87;;;;;;;2.21;90.26;99684.28;1748447;81;21020;-67
2022/04/15 04:18:20;;;;;;;63.55;24.15;;;;;;;2.35;90.29;99686.81;1712225;82;20982;-67
2022/04/15 04:20:48;;;;;;;51.08;20.82;;;;;;;2.49;90.23;99685.84;1749044;81;20889;-67
2022/04/15 04:23:21;;;;;;;50.17;21.00;;;;;;;2.60;89.62;99687.02;1726438;81;21186;-68
2022/04/15 04:25:52;;;;;;;45.48;19.25;;;;;;;2.74;89.39;99683.86;1723810;81;21076;-68
2022/04/15 04:28:22;;;;;;;45.17;19.00;;;;;;;2.89;89.20;99685.28;1729308;81;20902;-67
2022/04/15 04:30:49;;;;;;;41.85;18.87;;;;;;;3.01;88.18;99682.38;1720198;81;20946;-67
2022/04/15 04:33:15;;;;;;;41.23;18.23;;;;;;;3.15;87.45;99683.53;1726228;81;20893;-67
2022/04/15 04:35:48;;;;;;;42.15;17.05;;;;;;;3.29;86.34;99686.87;1735962;81;21899;-69
2022/04/15 04:38:21;;;;;;;39.40;17.70;;;;;;;3.58;85.39;99682.34;1728268;81;20996;-70
2022/04/15 04:40:48;;;;;;;39.80;17.52;;;;;;;3.58;85.39;99682.34;1735096;81;21071;-71
2022/04/15 04:43:19;;;;;;;41.20;17.20;;;;;;;3.76;85.05;99671.53;1748288;81;20965;-70
2022/04/15 04:45:53;;;;;;;44.00;16.12;;;;;;;3.93;84.68;99677.55;1739801;81;21006;-69
2022/04/15 04:48:25;;;;;;;32.20;14.43;;;;;;;4.11;84.09;99669.40;1716679;81;21164;-68
2022/04/15 04:50:54;;;;;;;27.32;10.40;;;;;;;4.51;78.40;99669.42;1720448;81;21537;-67
2022/04/15 04:53:23;;;;;;;22.32;11.28;;;;;;;4.51;78.40;99669.42;1683895;83;20920;-67
2022/04/15 04:55:52;;;;;;;29.60;11.75;;;;;;;4.75;75.88;99673.72;1709856;83;20935;-67
2022/04/15 04:58:23;;;;;;;33.53;13.18;;;;;;;4.96;74.29;99669.88;1711728;82;21490;-66
2022/04/15 05:00:57;;;;;;;27.07;11.85;;;;;;;5.17;72.67;99663.84;1716444;82;20981;-67
2022/04/15 05:03:24;;;;;;;29.52;12.30;;;;;;;5.38;70.97;99662.38;1727548;81;21438;-67
2022/04/15 05:05:56;;;;;;;29.07;9.98;;;;;;;5.57;69.46;99660.11;1720582;81;20953;-69
2022/04/15 05:08:25;;;;;;;24.02;9.15;;;;;;;5.77;66.83;99663.27;1724776;82;20964;-67
2022/04/15 05:10:55;;;;;;;23.35;9.73;;;;;;;5.97;64.70;99662.34;1722037;82;20972;-69
2022/04/15 05:13:26;;;;;;;20.25;9.45;;;;;;;6.16;64.45;99664.67;1733322;82;21570;-69
2022/04/15 05:15:58;;;;;;;20.25;8.33;;;;;;;6.34;63.53;99663.17;1740522;81;20963;-68
2022/04/15 05:18:28;;;;;;;19.20;9.85;;;;;;;6.51;62.90;99658.09;1745423;81;21094;-68
2022/04/15 05:21:00;;;;;;;24.12;10.00;;;;;;;6.68;61.62;99660.40;1745309;81;20945;-70
2022/04/15 05:23:27;;;;;;;21.12;9.55;;;;;;;6.84;61.23;99663.25;1709638;82;20921;-69
2022/04/15 05:26:02;;;;;;;23.60;10.30;;;;;;;7.00;60.41;99662.51;1730477;82;20976;-69
2022/04/15 05:28:35;;;;;;;19.48;8.65;;;;;;;7.17;60.17;99662.06;1729274;82;20881;-69
2022/04/15 05:31:08;;;;;;;18.02;8.48;;;;;;;7.34;60.10;99656.13;1732547;81;21550;-70
2022/04/15 05:33:41;;;;;;;17.90;7.92;;;;;;;7.53;58.55;99658.32;1709771;81;21008;-68
2022/04/15 05:36:10;;;;;;;15.28;7.25;;;;;;;7.72;58.14;99654.25;1742425;81;21051;-68
2022/04/15 05:38:40;;;;;;;18.52;8.78;;;;;;;7.90;57.82;99654.27;1726651;81;21246;-68
2022/04/15 05:41:08;;;;;;;19.40;7.62;;;;;;;8.09;57.28;99656.16;1730496;80;21554;-69
2022/04/15 05:43:37;;;;;;;17.42;8.00;;;;;;;8.25;56.14;99656.19;1737095;81;21089;-67
2022/04/15 05:46:10;;;;;;;15.00;7.65;;;;;;;8.44;55.21;99654.27;1726422;81;21492;-67
2022/04/15 05:48:40;;;;;;;14.60;7.25;;;;;;;8.66;54.53;99655.55;1687346;82;20934;-65
2022/04/15 05:51:12;;;;;;;19.82;7.95;;;;;;;8.86;53.87;99655.16;1742450;81;21259;-67
2022/04/15 05:53:54;;;;;;;16.50;7.20;;;;;;;9.07;53.06;99650.13;1741107;81;21150;-68
2022/04/15 05:56:26;;;;;;;19.85;6.37;;;;;;;9.28;52.62;99652.13;1727298;81;20965;-68
2022/04/15 05:58:54;;;;;;;14.83;7.12;;;;;;;9.50;52.41;99641.83;1735175;81;21028;-65
2022/04/15 06:01:24;;;;;;;16.15;6.92;;;;;;;9.69;51.20;99648.55;1716166;82;21025;-66
2022/04/15 06:03:54;;;;;;;17.62;7.20;;;;;;;9.86;50.92;99645.14;1732761;81;21162;-66
2022/04/15 06:06:25;;;;;;;14.90;7.05;;;;;;;10.01;50.60;99646.17;1669703;82;21026;-66
2022/04/15 06:08:55;;;;;;;21.48;8.03;;;;;;;10.16;49.81;99640.89;1716299;82;20988;-66
2022/04/15 06:11:25;;;;;;;15.60;7.62;;;;;;;10.25;49.69;99635.76;1743304;81;21513;-66
2022/04/15 06:14:00;;;;;;;16.57;7.37;;;;;;;10.38;49.28;99636.82;1731173;82;20965;-66
2022/04/15 06:16:32;;;;;;;16.73;7.10;;;;;;;10.51;49.15;99633.17;1727563;83;21162;-71
2022/04/15 06:19:05;;;;;;;20.30;8.50;;;;;;;10.65;48.65;99629.54;1729385;82;20939;-69
2022/04/15 06:21:35;;;;;;;18.98;7.55;;;;;;;10.80;48.03;99627.77;1740929;82;21077;-69
2022/04/15 06:24:09;;;;;;;11.65;6.25;;;;;;;10.97;47.31;99626.48;1726214;82;21024;-77
2022/04/15 06:26:37;;;;;;;13.20;6.10;;;;;;;11.15;47.18;99627.34;1729851;81;21590;-74
2022/04/15 06:29:04;;;;;;;10.25;5.37;;;;;;;11.33;47.78;99622.72;1741457;81;21178;-80
2022/04/15 06:31:35;;;;;;;13.85;5.45;;;;;;;11.52;45.92;99617.77;1744562;82;20929;-76
2022/04/15 06:34:05;;;;;;;10.05;5.12;;;;;;;11.72;46.43;99619.87;1749549;82;21495;-73
2022/04/15 06:36:39;;;;;;;15.78;5.47;;;;;;;11.91;45.18;99615.48;1726359;82;20905;-74
2022/04/15 06:39:07;;;;;;;7.50;4.28;;;;;;;12.10;44.45;99613.80;1749247;82;21610;-74
2022/04/15 06:41:44;;;;;;;9.43;4.33;;;;;;;12.29;43.96;99610.68;1704364;82;20981;-73
2022/04/15 06:44:15;;;;;;;8.73;4.80;;;;;;;12.48;42.72;99611.14;1748250;81;21055;-70
2022/04/15 06:46:45;;;;;;;10.80;4.53;;;;;;;12.67;43.17;99611.59;1751519;81;21035;-68
2022/04/15 06:49:17;;;;;;;11.30;3.83;;;;;;;12.87;42.68;99608.67;1747256;81;21028;-69
2022/04/15 06:51:53;;;;;;;9.00;4.30;;;;;;;13.06;41.50;99608.28;1744365;81;20992;-70
2022/04/15 06:54:21;;;;;;;7.87;3.12;;;;;;;13.25;41.13;99609.29;1746076;81;21842;-74
2022/04/15 06:56:51;;;;;;;9.33;4.10;;;;;;;13.41;39.79;99600.66;1711023;80;21552;-72
2022/04/15 06:59:20;;;;;;;9.85;3.45;;;;;;;13.53;39.91;99602.13;1736145;81;21097;-71
2022/04/15 07:01:48;;;;;;;6.00;2.95;;;;;;;13.66;40.04;99600.27;1722589;81;21072;-71
2022/04/15 07:04:15;;;;;;;8.55;3.85;;;;;;;13.79;38.54;99597.83;1720660;81;21049;-72
2022/04/15 07:06:47;;;;;;;7.45;3.50;;;;;;;13.94;38.85;99597.20;1705915;82;21338;-72
2022/04/15 07:09:14;;;;;;;7.25;3.20;;;;;;;14.07;37.77;99593.94;1713661;83;20999;-67
2022/04/15 07:11:47;;;;;;;8.78;3.30;;;;;;;14.21;37.27;99593.08;1720724;81;21067;-67
2022/04/15 07:14:14;;;;;;;9.88;3.05;;;;;;;14.35;36.53;99588.08;1740286;81;20949;-69
2022/04/15 07:16:50;;;;;;;7.28;3.17;;;;;;;14.48;36.32;99598.02;1732946;81;20874;-68
2022/04/15 07:19:22;;;;;;;6.37;2.72;;;;;;;14.62;36.57;99590.01;1709693;82;21976;-67
2022/04/15 07:21:50;;;;;;;5.70;2.85;;;;;;;14.78;34.63;99582.68;1734837;82;21415;-69
2022/04/15 07:24:17;;;;;;;8.00;3.15;;;;;;;14.92;34.60;99587.31;1731136;82;21051;-70
2022/04/15 07:26:49;;;;;;;4.90;2.50;;;;;;;15.01;34.89;99590.78;1733591;82;21467;-70
2022/04/15 07:29:21;;;;;;;6.08;2.80;;;;;;;15.13;34.00;99586.61;1723646;82;20948;-70
2022/04/15 07:31:55;;;;;;;4.95;2.77;;;;;;;15.20;33.51;99581.89;1698438;82;21126;-70
2022/04/15 07:34:26;;;;;;;6.50;2.85;;;;;;;15.25;33.08;99582.24;1673347;82;21609;-70
2022/04/15 07:36:57;;;;;;;14.10;3.35;;;;;;;15.39;33.23;99580.74;1689383;83;21004;-69
2022/04/15 07:39:27;;;;;;;7.10;3.55;;;;;;;15.61;33.70;99580.84;1690960;83;21004;-69
2022/04/15 07:41:59;;;;;;;7.28;3.77;;;;;;;15.96;31.88;99583.88;1682928;83;20956;-69
2022/04/15 07:44:32;;;;;;;6.27;3.00;;;;;;;16.33;31.38;99575.41;1648856;83;20896;-70
2022/04/15 07:47:07;;;;;;;10.40;3.35;;;;;;;16.71;30.16;99575.71;1658238;84;20959;-69
2022/04/15 07:49:37;;;;;;;6.25;3.60;;;;;;;16.99;29.23;99574.81;1672870;84;21506;-69
2022/04/15 07:52:08;;;;;;;8.85;3.55;;;;;;;17.19;29.39;99572.34;1691619;81;21497;-70
2022/04/15 07:54:42;;;;;;;6.60;3.30;;;;;;;17.44;29.18;99571.53;1731707;81;20944;-68
2022/04/15 07:57:12;;;;;;;8.70;3.27;;;;;;;17.68;28.04;99568.55;1712170;81;21168;-68
2022/04/15 07:59:42;;;;;;;7.55;3.58;;;;;;;17.86;27.73;99566.17;1707300;82;21012;-68
2022/04/15 08:02:13;;;;;;;8.50;2.98;;;;;;;17.95;28.15;99561.18;1723244;81;20942;-69
2022/04/15 08:04:43;;;;;;;5.97;3.40;;;;;;;18.14;27.82;99567.33;1706736;81;20986;-69
2022/04/15 08:07:13;;;;;;;6.47;3.77;;;;;;;18.37;27.61;99554.89;1703751;81;21565;-69
2022/04/15 08:09:42;;;;;;;9.65;3.60;;;;;;;18.60;27.19;99556.29;1705845;81;20944;-70
2022/04/15 08:12:13;;;;;;;8.65;2.83;;;;;;;18.77;26.06;99544.72;1697794;83;21450;-67
2022/04/15 08:14:43;;;;;;;5.95;3.52;;;;;;;18.88;26.09;99544.32;1690612;81;21042;-68
2022/04/15 08:17:12;;;;;;;6.87;3.17;;;;;;;18.86;25.66;99548.06;1745291;81;21513;-67
2022/04/15 08:19:41;;;;;;;6.97;3.27;;;;;;;18.90;26.13;99541.17;1751132;80;21458;-67
2022/04/15 08:22:10;;;;;;;5.83;3.47;;;;;;;19.08;26.22;99541.66;1731972;81;20877;-68
2022/04/15 08:24:42;;;;;;;4.50;3.35;;;;;;;19.26;25.41;99539.16;1731790;81;20982;-69
2022/04/15 08:27:13;;;;;;;6.58;4.05;;;;;;;19.40;26.03;99546.34;1734824;81;20969;-68
2022/04/15 08:29:49;;;;;;;8.05;4.37;;;;;;;19.64;25.76;99534.58;1714436;81;20987;-65
2022/04/15 08:32:16;;;;;;;8.30;4.87;;;;;;;19.79;24.43;99533.56;1762925;80;21459;-68
2022/04/15 08:34:48;;;;;;;9.35;4.42;;;;;;;19.69;25.20;99535.03;1704977;81;21046;-71
2022/04/15 08:37:18;;;;;;;8.85;3.70;;;;;;;19.76;24.82;99528.75;1702649;81;21004;-69
2022/04/15 08:39:49;;;;;;;6.47;3.70;;;;;;;19.89;25.19;99535.69;1693746;83;21026;-70
2022/04/15 08:42:21;;;;;;;11.70;4.65;;;;;;;20.04;24.83;99528.32;1662614;84;21014;-70
2022/04/15 08:44:51;;;;;;;5.80;3.75;;;;;;;20.32;24.40;99518.06;1689098;83;20965;-70
2022/04/15 08:47:24;;;;;;;6.80;3.92;;;;;;;20.49;23.90;99520.87;1653507;84;21475;-70
2022/04/15 08:49:55;;;;;;;10.08;4.17;;;;;;;20.46;23.35;99518.25;1701990;82;20913;-71
2022/04/15 08:52:22;;;;;;;8.35;3.92;;;;;;;20.21;23.33;99509.62;1731295;81;21029;-70
2022/04/15 08:55:02;;;;;;;9.43;4.00;;;;;;;20.02;23.88;99511.98;1713734;83;20949;-70
2022/04/15 08:57:27;;;;;;;7.12;3.92;;;;;;;19.90;24.32;99505.27;1733189;82;21460;-70
2022/04/15 08:59:57;;;;;;;10.08;4.17;;;;;;;20.03;24.44;99511.39;1740692;81;21752;-69
2022/04/15 09:02:33;;;;;;;9.05;3.55;;;;;;;20.20;24.01;99497.45;1733308;81;21014;-69
2022/04/15 09:05:02;;;;;;;10.28;4.00;;;;;;;20.37;24.20;99495.42;1728122;81;21038;-69
2022/04/15 09:07:30;;;;;;;5.03;3.15;;;;;;;20.69;23.65;99487.41;1733467;81;20960;-71
2022/04/15 09:10:02;;;;;;;7.87;3.55;;;;;;;20.74;23.38;99487.86;1730104;82;20964;-69
2022/04/15 09:12:35;;;;;;;5.78;3.30;;;;;;;20.81;23.06;99488.48;1729269;81;21138;-69
2022/04/15 09:15:23;;;;;;;6.87;3.27;;;;;;;20.85;22.48;99480.14;1741863;81;20928;-72
2022/04/15 09:17:49;;;;;;;5.25;3.50;;;;;;;20.84;23.38;99482.13;1744717;81;21435;-69
2022/04/15 09:20:27;;;;;;;10.00;3.70;;;;;;;20.98;23.12;99479.45;1749171;81;20860;-68
2022/04/15 09:22:55;;;;;;;9.08;3.87;;;;;;;21.08;22.56;99477.94;1740789;81;21529;-66
2022/04/15 09:25:30;;;;;;;5.60;3.42;;;;;;;21.09;22.46;99479.53;1748013;81;21254;-67
2022/04/15 09:28:05;;;;;;;5.87;3.20;;;;;;;21.09;22.53;99481.73;1730458;82;20944;-69
2022/04/15 09:30:41;;;;;;;5.53;3.05;;;;;;;21.18;23.00;99480.59;1728640;82;21102;-68
2022/04/15 09:33:11;;;;;;;6.97;3.22;;;;;;;21.34;22.41;99476.95;1720004;81;21007;-68
2022/04/15 09:35:45;;;;;;;7.55;3.75;;;;;;;21.53;22.71;99469.65;1736320;81;21022;-68
2022/04/15 09:38:19;;;;;;;7.25;3.87;;;;;;;21.62;22.19;99463.11;1692943;82;20999;-67
2022/04/15 09:40:51;;;;;;;5.05;3.50;;;;;;;21.68;22.66;99454.56;1737068;81;21032;-67
2022/04/15 09:43:23;;;;;;;5.42;3.12;;;;;;;21.80;22.21;99463.79;1756216;80;21474;-68
2022/04/15 09:45:52;;;;;;;6.83;3.30;;;;;;;21.83;21.75;99450.43;1707250;82;21075;-66
2022/04/15 09:48:23;;;;;;;10.30;3.65;;;;;;;21.60;21.49;99445.14;1727036;81;21062;-66
2022/04/15 09:50:58;;;;;;;6.50;3.58;;;;;;;21.43;22.25;99438.27;1741165;81;21451;-67
2022/04/15 09:53:27;;;;;;;10.13;3.37;;;;;;;21.46;23.92;99437.49;1754974;81;21043;-66
2022/04/15 09:55:54;;;;;;;5.97;3.30;;;;;;;21.42;22.30;99434.68;1736209;81;21091;-66
2022/04/15 09:58:28;;;;;;;4.70;3.50;;;;;;;21.32;21.92;99450.01;1744327;81;21012;-70
2022/04/15 10:00:53;;;;;;;7.47;3.47;;;;;;;21.15;21.86;99443.69;1741956;81;21060;-72
2022/04/15 10:03:26;;;;;;;7.20;3.20;;;;;;;21.10;22.59;99430.90;1727924;81;21152;-71
2022/04/15 10:05:56;;;;;;;6.75;3.45;;;;;;;21.30;22.06;99431.45;1732520;80;21058;-71
2022/04/15 10:08:27;;;;;;;7.42;3.72;;;;;;;21.25;21.99;99419.26;1708604;81;20967;-71
2022/04/15 10:10:56;;;;;;;8.20;3.70;;;;;;;21.27;22.14;99410.70;1743949;81;21004;-72
2022/04/15 10:13:28;;;;;;;7.47;3.65;;;;;;;21.38;21.49;99409.33;1723915;81;20946;-72
2022/04/15 10:15:58;;;;;;;7.62;3.05;;;;;;;21.26;22.04;99392.34;1742607;81;21146;-72
2022/04/15 10:18:29;;;;;;;9.78;3.40;;;;;;;21.23;22.28;99397.91;1741750;81;20952;-71
2022/04/15 10:21:03;;;;;;;6.62;2.72;;;;;;;21.28;22.62;99394.75;1739249;80;20949;-71
2022/04/15 10:23:27;;;;;;;7.55;2.85;;;;;;;21.37;22.16;99391.77;1752663;81;20937;-70
2022/04/15 10:26:01;;;;;;;6.62;3.05;;;;;;;21.43;21.84;99393.59;1724187;81;21493;-71
2022/04/15 10:28:40;;;;;;;6.97;3.10;;;;;;;21.40;21.92;99389.59;1747520;81;21183;-72
2022/04/15 10:31:16;;;;;;;4.87;3.17;;;;;;;21.51;22.44;99393.83;1710667;81;20990;-68
2022/04/15 10:33:51;;;;;;;7.17;3.00;;;;;;;21.69;22.56;99382.13;1691605;81;21436;-68
2022/04/15 10:36:25;;;;;;;7.17;3.15;;;;;;;22.00;22.35;99375.00;1685272;83;20944;-71
2022/04/15 10:39:11;;;;;;;4.97;3.35;;;;;;;22.31;21.77;99381.86;1707619;81;20939;-69
2022/04/15 10:41:48;;;;;;;5.42;2.98;;;;;;;22.42;21.47;99380.47;1698674;83;21149;-70
2022/04/15 10:44:25;;;;;;;8.23;3.27;;;;;;;22.44;21.25;99381.47;1706757;81;20992;-70
2022/04/15 10:46:52;;;;;;;5.28;2.45;;;;;;;22.26;20.82;99372.47;1704706;83;21462;-68
2022/04/15 10:49:27;;;;;;;6.12;3.00;;;;;;;22.12;21.49;99373.05;1715134;83;21475;-68
2022/04/15 10:52:04;;;;;;;3.92;2.80;;;;;;;22.22;22.08;99361.09;1712761;83;21018;-67
2022/04/15 10:54:48;;;;;;;5.53;3.40;;;;;;;22.39;21.72;99369.48;1708951;82;21144;-67
2022/04/15 10:57:17;;;;;;;4.08;2.50;;;;;;;22.58;22.33;99357.67;1710035;82;21201;-70
2022/04/15 11:02:53;;;;;;;5.45;2.65;;;;;;;22.53;21.73;99365.86;1690253;82;21058;-68
2022/04/15 11:05:48;;;;;;;3.98;2.52;;;;;;;22.39;20.66;99359.70;1708801;82;21011;-69
2022/04/15 11:08:18;;;;;;;7.15;2.83;;;;;;;22.11;21.46;99338.71;1724625;82;21644;-69
2022/04/15 11:10:58;;;;;;;4.90;2.45;;;;;;;22.10;21.49;99351.69;1745436;81;20980;-67
2022/04/15 11:13:46;;;;;;;5.25;3.05;;;;;;;22.11;21.71;99340.11;1742775;81;20997;-67
2022/04/15 11:16:16;;;;;;;6.37;2.70;;;;;;;22.31;21.77;99337.72;1661871;84;21109;-70
2022/04/15 11:18:58;;;;;;;7.87;2.75;;;;;;;22.44;21.61;99340.92;1695972;82;20955;-68
2022/04/15 11:21:32;;;;;;;10.28;3.02;;;;;;;22.52;21.21;99330.73;1701042;83;21259;-70
2022/04/15 11:24:04;;;;;;;4.65;2.30;;;;;;;22.68;21.80;99327.48;1672680;84;21071;-69
2022/04/15 11:26:36;;;;;;;;;;;;;;;22.95;20.60;99339.05;1658608;85;21056;-70
2022/04/15 11:29:03;;;;;;;8.25;2.70;;;;;;;22.99;20.62;99317.45;1666254;85;20517;-67
2022/04/15 11:31:33;;;;;;;3.95;2.20;;;;;;;23.17;21.49;99315.36;1718287;82;21018;-68
2022/04/15 11:34:15;;;;;;;6.08;2.50;;;;;;;23.27;19.96;99314.52;1720018;82;21165;-75
2022/04/15 11:36:53;;;;;;;5.87;2.65;;;;;;;23.21;20.43;99310.55;1714075;82;20893;-68
2022/04/15 11:39:24;;;;;;;8.38;2.72;;;;;;;23.33;20.38;99314.89;1725451;81;20909;-67
2022/04/15 11:42:01;;;;;;;5.47;2.80;;;;;;;23.33;20.48;99312.89;1735300;81;20946;-69
2022/04/15 11:44:32;;;;;;;7.83;2.12;;;;;;;23.30;20.38;99298.91;1732186;81;21004;-70
2022/04/15 11:47:16;;;;;;;5.10;2.10;;;;;;;23.35;20.30;99310.48;1733430;81;21174;-69
2022/04/15 11:49:33;;;;;;;8.83;2.52;;;;;;;23.40;20.41;99293.86;1727043;82;20953;-68
2022/04/15 11:52:05;;;;;;;17.80;2.60;;;;;;;23.46;19.65;99290.02;1748138;81;20920;-67
2022/04/15 11:54:39;;;;;;;8.55;2.70;;;;;;;23.48;20.18;99296.81;1744929;81;21526;-67